createdAt,value
2022-08-20T00:01:55.942Z,99457.15
2022-08-20T00:04:24.040Z,99456.00
2022-08-20T00:06:51.214Z,99456.11
2022-08-20T00:09:18.890Z,99458.05
2022-08-20T00:11:46.266Z,99457.09
2022-08-20T00:14:13.476Z,99452.49
2022-08-20T00:16:40.776Z,99450.35
2022-08-20T00:19:09.090Z,99448.91
2022-08-20T00:21:37.196Z,99448.55
2022-08-20T00:24:05.436Z,99448.80
2022-08-20T00:26:32.648Z,99454.51
2022-08-20T00:29:00.355Z,99453.21
2022-08-20T00:31:27.917Z,99450.20
2022-08-20T00:33:55.396Z,99450.16
2022-08-20T00:36:30.025Z,99451.00
2022-08-20T00:39:00.210Z,99448.83
2022-08-20T00:41:28.396Z,99447.31
2022-08-20T00:44:14.642Z,99443.07
2022-08-20T00:46:43.405Z,99440.84
2022-08-20T00:49:21.922Z,99436.27
2022-08-20T00:51:59.685Z,99430.48
2022-08-20T00:54:53.162Z,99427.31
2022-08-20T00:57:58.954Z,99430.24
2022-08-20T01:00:33.744Z,99430.73
2022-08-20T01:03:01.430Z,99427.20
2022-08-20T01:05:30.059Z,99426.45
2022-08-20T01:07:58.189Z,99424.30
2022-08-20T01:10:34.835Z,99419.59
2022-08-20T01:13:10.555Z,99424.03
2022-08-20T01:15:43.436Z,99425.43
2022-08-20T01:18:20.453Z,99420.77
2022-08-20T01:21:00.900Z,99419.08
2022-08-20T01:24:00.831Z,99420.10
2022-08-20T01:26:39.674Z,99421.93
2022-08-20T01:29:11.280Z,99423.42
2022-08-20T01:31:41.250Z,99417.68
2022-08-20T01:34:13.336Z,99413.29
2022-08-20T01:36:47.622Z,99406.04
2022-08-20T01:39:20.684Z,99400.84
2022-08-20T01:42:23.417Z,99396.93
2022-08-20T01:44:52.574Z,99405.06
2022-08-20T01:47:27.157Z,99406.46
2022-08-20T01:50:05.607Z,99406.08
2022-08-20T01:52:51.484Z,99409.88
2022-08-20T01:55:19.221Z,99407.84
2022-08-20T01:57:48.458Z,99407.06
2022-08-20T02:00:19.658Z,99410.14
2022-08-20T02:02:50.852Z,99404.41
2022-08-20T02:05:19.731Z,99402.08
2022-08-20T02:07:47.290Z,99400.46
2022-08-20T02:10:17.307Z,99403.85
2022-08-20T02:12:44.604Z,99402.23
2022-08-20T02:15:12.910Z,99406.85
2022-08-20T02:17:41.474Z,99404.96
2022-08-20T02:20:14.512Z,99404.79
2022-08-20T02:22:53.473Z,99408.10
2022-08-20T02:25:27.162Z,99413.91
2022-08-20T02:28:00.989Z,99419.88
2022-08-20T02:30:41.953Z,99418.46
2022-08-20T02:33:12.993Z,99417.05
2022-08-20T02:35:42.471Z,99412.40
2022-08-20T02:38:11.562Z,99413.88
2022-08-20T02:40:40.447Z,99410.08
2022-08-20T02:43:07.562Z,99408.02
2022-08-20T02:45:43.397Z,99408.77
2022-08-20T02:48:20.250Z,99408.12
2022-08-20T02:50:52.127Z,99411.30
2022-08-20T02:53:19.465Z,99410.36
2022-08-20T02:55:46.784Z,99416.19
2022-08-20T02:58:14.461Z,99417.94
2022-08-20T03:00:42.436Z,99420.15
2022-08-20T03:03:11.412Z,99416.80
2022-08-20T03:05:40.722Z,99422.13
2022-08-20T03:08:11.262Z,99425.42
2022-08-20T03:10:40.964Z,99426.35
2022-08-20T03:13:11.853Z,99427.25
2022-08-20T03:16:00.310Z,99425.98
2022-08-20T03:18:33.890Z,99424.21
2022-08-20T03:21:02.184Z,99424.66
2022-08-20T03:23:29.918Z,99424.27
2022-08-20T03:25:57.994Z,99420.61
2022-08-20T03:28:25.939Z,99415.39
2022-08-20T03:30:54.249Z,99421.91
2022-08-20T03:33:21.393Z,99419.02
2022-08-20T03:35:49.118Z,99420.24
2022-08-20T03:38:18.623Z,99421.38
2022-08-20T03:40:56.628Z,99425.55
2022-08-20T03:43:24.327Z,99429.34
2022-08-20T03:45:51.938Z,99431.94
2022-08-20T03:48:20.553Z,99434.84
2022-08-20T03:50:50.341Z,99437.19
2022-08-20T03:53:19.026Z,99435.67
2022-08-20T03:55:54.418Z,99435.27
2022-08-20T03:58:35.454Z,99429.19
2022-08-20T04:01:06.688Z,99429.52
2022-08-20T04:03:35.057Z,99428.98
2022-08-20T04:06:03.544Z,99428.79
2022-08-20T04:08:30.943Z,99429.77
2022-08-20T04:10:59.462Z,99435.34
2022-08-20T04:13:29.270Z,99441.41
2022-08-20T04:16:00.644Z,99442.64
2022-08-20T04:18:28.109Z,99443.92
2022-08-20T04:20:55.461Z,99443.98
2022-08-20T04:23:23.014Z,99447.52
2022-08-20T04:25:50.273Z,99446.58
2022-08-20T04:28:29.812Z,99450.27
2022-08-20T04:31:00.344Z,99453.10
2022-08-20T04:33:33.413Z,99454.42
2022-08-20T04:36:05.072Z,99458.43
2022-08-20T04:38:50.184Z,99459.12
2022-08-20T04:41:23.711Z,99468.10
2022-08-20T04:43:54.036Z,99465.86
2022-08-20T04:46:25.255Z,99470.82
2022-08-20T04:48:53.262Z,99461.60
2022-08-20T04:51:23.466Z,99464.45
2022-08-20T04:53:54.463Z,99467.65
2022-08-20T04:56:28.258Z,99464.59
2022-08-20T04:58:59.325Z,99470.12
2022-08-20T05:01:28.246Z,99471.92
2022-08-20T05:03:56.085Z,99470.04
2022-08-20T05:06:29.718Z,99469.08
2022-08-20T05:08:59.560Z,99473.17
2022-08-20T05:11:34.277Z,99468.58
2022-08-20T05:14:09.376Z,99472.75
2022-08-20T05:16:39.396Z,99469.92
2022-08-20T05:19:12.983Z,99468.27
2022-08-20T05:21:41.051Z,99468.34
2022-08-20T05:24:09.645Z,99471.36
2022-08-20T05:26:37.165Z,99471.94
2022-08-20T05:29:05.951Z,99477.11
2022-08-20T05:31:34.160Z,99478.61
2022-08-20T05:34:09.052Z,99480.53
2022-08-20T05:36:49.098Z,99474.96
2022-08-20T05:39:21.621Z,99479.36
2022-08-20T05:41:50.777Z,99478.36
2022-08-20T05:44:19.024Z,99477.52
2022-08-20T05:46:48.151Z,99481.77
2022-08-20T05:49:19.690Z,99477.89
2022-08-20T05:51:49.237Z,99477.77
2022-08-20T05:54:16.626Z,99476.86
2022-08-20T05:56:44.021Z,99471.05
2022-08-20T05:59:13.617Z,99472.52
2022-08-20T06:01:42.348Z,99465.26
2022-08-20T06:04:27.575Z,99466.11
2022-08-20T06:07:04.146Z,99462.95
2022-08-20T06:09:32.938Z,99465.91
2022-08-20T06:12:04.313Z,99467.58
2022-08-20T06:14:33.018Z,99471.89
2022-08-20T06:17:13.648Z,99471.45
2022-08-20T06:19:46.145Z,99469.94
2022-08-20T06:22:18.833Z,99467.98
2022-08-20T06:24:50.808Z,99465.92
2022-08-20T06:27:19.128Z,99467.79
2022-08-20T06:29:47.051Z,99474.75
2022-08-20T06:32:14.769Z,99467.79
2022-08-20T06:34:50.682Z,99469.44
2022-08-20T06:37:27.479Z,99467.50
2022-08-20T06:40:07.405Z,99468.05
2022-08-20T06:42:34.907Z,99463.52
2022-08-20T06:45:05.140Z,99464.19
2022-08-20T06:47:33.888Z,99462.19
2022-08-20T06:50:01.402Z,99458.59
2022-08-20T06:52:51.663Z,99459.75
2022-08-20T06:55:17.172Z,99456.87
2022-08-20T06:57:44.635Z,99462.39
2022-08-20T07:00:18.664Z,99465.52
2022-08-20T07:02:47.667Z,99464.02
2022-08-20T07:05:16.010Z,99473.02
2022-08-20T07:07:49.308Z,99472.11
2022-08-20T07:10:19.312Z,99465.63
2022-08-20T07:12:46.939Z,99455.73
2022-08-20T07:15:14.806Z,99461.59
2022-08-20T07:17:42.106Z,99459.30
2022-08-20T07:20:14.977Z,99458.69
2022-08-20T07:22:43.185Z,99458.21
2022-08-20T07:25:14.115Z,99457.77
2022-08-20T07:27:43.109Z,99454.35
2022-08-20T07:30:56.914Z,99457.41
2022-08-20T07:33:29.920Z,99457.95
2022-08-20T07:36:03.824Z,99455.35
2022-08-20T07:38:32.736Z,99458.01
2022-08-20T07:41:14.322Z,99450.31
2022-08-20T07:43:45.112Z,99453.92
2022-08-20T07:46:18.024Z,99456.20
2022-08-20T07:48:50.854Z,99454.08
2022-08-20T07:51:21.782Z,99455.13
2022-08-20T07:53:51.341Z,99451.86
2022-08-20T07:56:23.160Z,99457.27
2022-08-20T07:58:55.029Z,99455.75
2022-08-20T08:01:30.380Z,99459.84
2022-08-20T08:03:59.635Z,99456.91
2022-08-20T08:06:31.268Z,99455.46
2022-08-20T08:09:09.339Z,99451.88
2022-08-20T08:11:46.422Z,99449.95
2022-08-20T08:14:19.076Z,99445.65
2022-08-20T08:16:46.340Z,99444.39
2022-08-20T08:19:16.456Z,99441.20
2022-08-20T08:21:44.024Z,99442.56
2022-08-20T08:24:15.504Z,99439.89
2022-08-20T08:26:49.625Z,99436.90
2022-08-20T08:29:16.874Z,99435.80
2022-08-20T08:31:44.301Z,99436.61
2022-08-20T08:34:12.531Z,99431.35
2022-08-20T08:36:39.969Z,99427.31
2022-08-20T08:39:07.222Z,99434.32
2022-08-20T08:41:49.550Z,99437.16
2022-08-20T08:44:27.946Z,99434.03
2022-08-20T08:47:02.766Z,99431.77
2022-08-20T08:49:37.306Z,99435.63
2022-08-20T08:52:14.267Z,99435.88
2022-08-20T08:54:50.085Z,99437.09
2022-08-20T08:57:18.554Z,99432.39
2022-08-20T09:00:21.548Z,99428.80
2022-08-20T09:03:25.998Z,99429.39
2022-08-20T09:05:58.229Z,99429.00
2022-08-20T09:08:47.409Z,99426.27
2022-08-20T09:11:15.898Z,99428.02
2022-08-20T09:13:43.882Z,99414.80
2022-08-20T09:16:13.588Z,99417.04
2022-08-20T09:18:41.729Z,99416.95
2022-08-20T09:21:09.301Z,99418.55
2022-08-20T09:23:36.405Z,99419.96
2022-08-20T09:26:03.862Z,99414.66
2022-08-20T09:28:32.314Z,99418.11
2022-08-20T09:31:03.582Z,99416.43
2022-08-20T09:33:31.932Z,99416.99
2022-08-20T09:35:59.243Z,99412.66
2022-08-20T09:38:26.409Z,99409.23
2022-08-20T09:40:53.725Z,99409.02
2022-08-20T09:43:21.045Z,99410.23
2022-08-20T09:45:48.240Z,99402.96
2022-08-20T09:48:15.398Z,99399.40
2022-08-20T09:50:48.155Z,99405.95
2022-08-20T09:53:17.106Z,99400.91
2022-08-20T09:55:50.334Z,99396.16
2022-08-20T09:58:30.497Z,99399.02
2022-08-20T10:01:01.649Z,99395.02
2022-08-20T10:03:28.938Z,99384.63
2022-08-20T10:05:55.997Z,99385.46
2022-08-20T10:08:23.321Z,99382.58
2022-08-20T10:10:50.724Z,99383.15
2022-08-20T10:13:18.190Z,99387.95
2022-08-20T10:15:45.314Z,99389.17
2022-08-20T10:18:12.542Z,99385.41
2022-08-20T10:20:40.001Z,99389.38
2022-08-20T10:23:07.598Z,99390.23
2022-08-20T10:25:34.762Z,99385.75
2022-08-20T10:28:02.590Z,99381.11
2022-08-20T10:30:29.710Z,99377.14
2022-08-20T10:32:56.918Z,99373.65
2022-08-20T10:35:24.185Z,99373.16
2022-08-20T10:37:51.669Z,99367.45
2022-08-20T10:40:19.055Z,99362.27
2022-08-20T10:42:46.218Z,99367.86
2022-08-20T10:45:15.781Z,99366.27
2022-08-20T10:47:44.231Z,99366.04
2022-08-20T10:50:16.269Z,99363.56
2022-08-20T10:52:43.673Z,99364.52
2022-08-20T10:55:11.519Z,99361.88
2022-08-20T10:57:40.960Z,99359.14
2022-08-20T11:00:10.176Z,99358.05
2022-08-20T11:02:38.052Z,99351.05
2022-08-20T11:05:06.587Z,99354.84
2022-08-20T11:07:50.773Z,99348.79
2022-08-20T11:10:26.350Z,99343.34
2022-08-20T11:12:54.334Z,99342.14
2022-08-20T11:15:22.021Z,99339.83
2022-08-20T11:17:50.006Z,99340.89
2022-08-20T11:20:21.346Z,99336.69
2022-08-20T11:22:48.487Z,99338.32
2022-08-20T11:25:15.899Z,99337.70
2022-08-20T11:27:47.953Z,99335.10
2022-08-20T11:30:26.224Z,99329.73
2022-08-20T11:32:54.334Z,99326.15
2022-08-20T11:35:42.264Z,99321.98
2022-08-20T11:38:11.826Z,99323.60
2022-08-20T11:40:39.278Z,99324.11
2022-08-20T11:43:15.180Z,99322.58
2022-08-20T11:45:49.520Z,99325.35
2022-08-20T11:48:17.468Z,99317.08
2022-08-20T11:50:45.162Z,99321.19
2022-08-20T11:53:12.407Z,99317.11
2022-08-20T11:55:39.898Z,99319.17
2022-08-20T11:58:07.388Z,99318.30
2022-08-20T12:00:36.362Z,99319.39
2022-08-20T12:03:08.651Z,99320.66
2022-08-20T12:05:43.199Z,99312.86
2022-08-20T12:08:25.113Z,99310.09
2022-08-20T12:10:59.381Z,99304.60
2022-08-20T12:13:47.201Z,99304.86
2022-08-20T12:16:18.196Z,99305.96
2022-08-20T12:18:47.200Z,99304.73
2022-08-20T12:21:15.453Z,99299.52
2022-08-20T12:23:42.904Z,99299.51
2022-08-20T12:26:10.270Z,99296.56
2022-08-20T12:28:37.617Z,99299.25
2022-08-20T12:31:04.982Z,99295.16
2022-08-20T12:33:32.157Z,99298.02
2022-08-20T12:35:59.802Z,99294.15
2022-08-20T12:38:27.256Z,99290.06
2022-08-20T12:40:54.444Z,99292.21
2022-08-20T12:43:24.889Z,99292.02
2022-08-20T12:45:52.435Z,99289.48
2022-08-20T12:48:20.551Z,99291.20
2022-08-20T12:50:50.006Z,99294.38
2022-08-20T12:53:17.497Z,99294.70
2022-08-20T12:55:45.935Z,99292.64
2022-08-20T12:58:12.848Z,99290.65
2022-08-20T13:00:44.054Z,99288.93
2022-08-20T13:03:13.898Z,99293.27
2022-08-20T13:05:41.489Z,99289.80
2022-08-20T13:08:11.561Z,99292.38
2022-08-20T13:10:45.077Z,99293.01
2022-08-20T13:13:14.691Z,99297.10
2022-08-20T13:15:41.876Z,99294.86
2022-08-20T13:18:09.187Z,99290.61
2022-08-20T13:20:36.854Z,99288.39
2022-08-20T13:23:04.492Z,99288.17
2022-08-20T13:25:32.772Z,99287.72
2022-08-20T13:28:03.509Z,99285.42
2022-08-20T13:30:32.763Z,99281.96
2022-08-20T13:33:00.281Z,99279.59
2022-08-20T13:35:28.813Z,99277.31
2022-08-20T13:37:56.207Z,99270.13
2022-08-20T13:40:23.526Z,99266.59
2022-08-20T13:42:51.074Z,99266.57
2022-08-20T13:45:18.389Z,99271.63
2022-08-20T13:47:45.878Z,99268.86
2022-08-20T13:50:21.006Z,99263.91
2022-08-20T13:52:48.384Z,99260.13
2022-08-20T13:55:18.767Z,99263.52
2022-08-20T13:57:47.217Z,99258.37
2022-08-20T14:00:20.498Z,99257.63
2022-08-20T14:02:47.805Z,99258.36
2022-08-20T14:05:18.941Z,99260.09
2022-08-20T14:07:48.727Z,99258.49
2022-08-20T14:10:21.865Z,99257.59
2022-08-20T14:12:49.412Z,99258.36
2022-08-20T14:15:17.590Z,99254.11
2022-08-20T14:17:55.272Z,99250.59
2022-08-20T14:20:29.393Z,99254.06
2022-08-20T14:23:01.017Z,99258.70
2022-08-20T14:25:31.294Z,99259.27
2022-08-20T14:27:59.408Z,99260.30
2022-08-20T14:30:29.044Z,99261.27
2022-08-20T14:32:56.956Z,99260.08
2022-08-20T14:35:24.325Z,99258.08
2022-08-20T14:37:54.960Z,99253.40
2022-08-20T14:40:25.288Z,99251.11
2022-08-20T14:42:53.279Z,99251.67
2022-08-20T14:45:21.449Z,99256.42
2022-08-20T14:47:54.437Z,99259.45
2022-08-20T14:50:31.917Z,99257.02
2022-08-20T14:53:00.294Z,99260.80
2022-08-20T14:55:33.899Z,99255.89
2022-08-20T14:58:01.064Z,99254.75
2022-08-20T15:00:30.358Z,99254.08
2022-08-20T15:02:57.787Z,99254.55
2022-08-20T15:05:25.494Z,99256.52
2022-08-20T15:07:54.128Z,99253.90
2022-08-20T15:10:29.408Z,99250.72
2022-08-20T15:12:57.577Z,99246.90
2022-08-20T15:15:25.233Z,99244.92
2022-08-20T15:17:56.755Z,99250.90
2022-08-20T15:20:30.835Z,99247.77
2022-08-20T15:22:58.268Z,99251.10
2022-08-20T15:25:29.264Z,99248.16
2022-08-20T15:28:07.080Z,99255.05
2022-08-20T15:30:34.344Z,99252.38
2022-08-20T15:33:02.007Z,99256.55
2022-08-20T15:35:30.191Z,99260.05
2022-08-20T15:37:58.549Z,99257.44
2022-08-20T15:40:29.391Z,99261.96
2022-08-20T15:42:58.921Z,99262.71
2022-08-20T15:45:26.874Z,99260.23
2022-08-20T15:48:20.504Z,99264.92
2022-08-20T15:50:47.505Z,99257.36
2022-08-20T15:53:55.434Z,99258.71
2022-08-20T15:56:25.226Z,99263.92
2022-08-20T15:59:22.370Z,99267.09
2022-08-20T16:02:01.665Z,99273.54
2022-08-20T16:04:45.434Z,99277.34
2022-08-20T16:07:31.993Z,99278.52
2022-08-20T16:10:16.975Z,99278.81
2022-08-20T16:12:51.212Z,99278.90
2022-08-20T16:15:33.600Z,99275.52
2022-08-20T16:18:24.201Z,99277.39
2022-08-20T16:20:54.558Z,99277.27
2022-08-20T16:23:30.991Z,99285.71
2022-08-20T16:26:49.558Z,99287.60
2022-08-20T16:29:26.729Z,99287.13
2022-08-20T16:32:08.569Z,99286.55
2022-08-20T16:35:07.508Z,99289.86
2022-08-20T16:38:09.837Z,99290.80
2022-08-20T16:40:59.222Z,99287.14
2022-08-20T16:43:39.528Z,99291.06
2022-08-20T16:46:19.272Z,99296.36
2022-08-20T16:48:55.695Z,99305.90
2022-08-20T16:51:49.452Z,99303.02
2022-08-20T16:54:29.737Z,99301.73
2022-08-20T16:57:04.129Z,99303.05
2022-08-20T16:59:32.579Z,99306.92
2022-08-20T17:02:11.058Z,99303.68
2022-08-20T17:04:59.637Z,99302.21
2022-08-20T17:07:51.583Z,99301.66
2022-08-20T17:10:24.747Z,99304.73
2022-08-20T17:13:00.327Z,99306.97
2022-08-20T17:15:31.413Z,99309.19
2022-08-20T17:18:32.496Z,99308.23
2022-08-20T17:21:03.848Z,99311.77
2022-08-20T17:23:54.635Z,99313.64
2022-08-20T17:26:31.320Z,99317.95
2022-08-20T17:29:02.961Z,99317.36
2022-08-20T17:31:41.278Z,99323.05
2022-08-20T17:34:23.238Z,99322.78
2022-08-20T17:37:26.365Z,99320.87
2022-08-20T17:40:28.414Z,99329.30
2022-08-20T17:43:04.198Z,99329.71
2022-08-20T17:45:39.639Z,99327.84
2022-08-20T17:48:13.942Z,99330.79
2022-08-20T17:50:43.359Z,99335.17
2022-08-20T17:53:33.699Z,99339.35
2022-08-20T17:56:08.229Z,99343.25
2022-08-20T17:58:54.366Z,99341.61
2022-08-20T18:01:25.335Z,99338.41
2022-08-20T18:03:53.552Z,99336.17
2022-08-20T18:06:36.869Z,99335.25
2022-08-20T18:09:15.853Z,99333.08
2022-08-20T18:12:08.717Z,99329.94
2022-08-20T18:15:25.002Z,99333.77
2022-08-20T18:18:56.377Z,99332.23
2022-08-20T18:22:15.286Z,99341.73
2022-08-20T18:25:00.480Z,99351.05
2022-08-20T18:27:43.922Z,99352.34
2022-08-20T18:30:20.234Z,99351.05
2022-08-20T18:32:58.699Z,99353.56
2022-08-20T18:35:45.681Z,99354.30
2022-08-20T18:38:22.377Z,99355.30
2022-08-20T18:40:54.898Z,99348.81
2022-08-20T18:43:29.908Z,99353.62
2022-08-20T18:46:19.452Z,99356.89
2022-08-20T18:48:59.589Z,99358.52
2022-08-20T18:51:50.122Z,99359.00
2022-08-20T18:54:35.700Z,99358.09
2022-08-20T18:57:21.488Z,99357.52
2022-08-20T19:00:15.854Z,99366.96
2022-08-20T19:03:07.562Z,99368.54
2022-08-20T19:06:08.068Z,99365.58
2022-08-20T19:08:59.378Z,99366.45
2022-08-20T19:11:56.236Z,99366.89
2022-08-20T19:14:39.920Z,99374.27
2022-08-20T19:17:14.348Z,99375.85
2022-08-20T19:19:41.771Z,99375.70
2022-08-20T19:22:12.818Z,99373.75
2022-08-20T19:24:43.988Z,99365.79
2022-08-20T19:27:12.653Z,99359.17
2022-08-20T19:29:48.957Z,99357.59
2022-08-20T19:32:32.794Z,99353.95
2022-08-20T19:35:06.773Z,99361.48
2022-08-20T19:37:50.528Z,99359.81
2022-08-20T19:40:32.584Z,99362.95
2022-08-20T19:43:04.421Z,99359.20
2022-08-20T19:45:43.692Z,99362.88
2022-08-20T19:48:35.118Z,99360.77
2022-08-20T19:51:12.631Z,99359.69
2022-08-20T19:53:48.377Z,99357.76
2022-08-20T19:56:25.313Z,99356.81
2022-08-20T19:59:07.752Z,99358.11
2022-08-20T20:01:36.964Z,99358.59
2022-08-20T20:04:14.107Z,99358.50
2022-08-20T20:06:46.986Z,99357.43
2022-08-20T20:09:28.201Z,99351.94
2022-08-20T20:12:02.477Z,99348.09
2022-08-20T20:14:34.165Z,99348.66
2022-08-20T20:17:05.721Z,99354.08
2022-08-20T20:19:47.529Z,99355.27
2022-08-20T20:22:26.636Z,99356.27
2022-08-20T20:25:33.429Z,99359.63
2022-08-20T20:28:42.297Z,99355.82
2022-08-20T20:31:11.633Z,99352.10
2022-08-20T20:33:44.298Z,99352.63
2022-08-20T20:36:18.048Z,99348.04
2022-08-20T20:39:00.684Z,99342.49
2022-08-20T20:41:29.347Z,99340.33
2022-08-20T20:44:19.056Z,99341.35
2022-08-20T20:46:51.529Z,99343.84
2022-08-20T20:49:25.745Z,99341.80
2022-08-20T20:52:15.307Z,99344.88
2022-08-20T20:54:45.907Z,99346.80
2022-08-20T20:57:18.907Z,99345.95
2022-08-20T21:00:00.095Z,99342.42
2022-08-20T21:02:27.434Z,99344.27
2022-08-20T21:04:57.822Z,99341.29
2022-08-20T21:07:25.472Z,99341.86
2022-08-20T21:09:56.027Z,99334.98
2022-08-20T21:12:24.099Z,99333.31
2022-08-20T21:14:51.500Z,99331.52
2022-08-20T21:17:22.538Z,99326.64
2022-08-20T21:19:51.766Z,99329.01
2022-08-20T21:22:20.176Z,99331.89
2022-08-20T21:24:51.067Z,99326.34
2022-08-20T21:27:24.437Z,99323.66
2022-08-20T21:29:53.504Z,99324.14
2022-08-20T21:32:21.232Z,99320.59
2022-08-20T21:34:49.381Z,99318.45
2022-08-20T21:37:17.535Z,99324.08
2022-08-20T21:39:44.708Z,99323.82
2022-08-20T21:42:29.249Z,99327.98
2022-08-20T21:44:58.741Z,99321.98
2022-08-20T21:47:27.632Z,99321.40
2022-08-20T21:49:55.124Z,99323.44
2022-08-20T21:52:22.751Z,99321.69
2022-08-20T21:54:50.238Z,99322.04
2022-08-20T21:57:27.475Z,99315.86
2022-08-20T21:59:57.061Z,99313.74
2022-08-20T22:02:25.614Z,99310.35
2022-08-20T22:04:54.380Z,99309.34
2022-08-20T22:07:22.038Z,99308.95
2022-08-20T22:09:49.460Z,99312.95
2022-08-20T22:12:22.601Z,99308.41
2022-08-20T22:14:50.423Z,99309.10
2022-08-20T22:17:18.042Z,99302.64
2022-08-20T22:19:45.189Z,99294.36
2022-08-20T22:22:15.169Z,99292.85
2022-08-20T22:24:45.091Z,99290.46
2022-08-20T22:27:12.825Z,99287.23
2022-08-20T22:29:40.207Z,99285.27
2022-08-20T22:32:07.760Z,99286.19
2022-08-20T22:34:36.735Z,99290.60
2022-08-20T22:37:04.100Z,99291.38
2022-08-20T22:39:31.282Z,99294.60
2022-08-20T22:41:58.438Z,99295.96
2022-08-20T22:44:25.865Z,99299.52
2022-08-20T22:46:59.053Z,99298.99
2022-08-20T22:49:31.118Z,99298.06
2022-08-20T22:51:58.768Z,99296.26
2022-08-20T22:54:26.652Z,99298.77
2022-08-20T22:56:54.526Z,99294.95
2022-08-20T22:59:22.185Z,99292.44
2022-08-20T23:01:51.330Z,99286.40
2022-08-20T23:04:30.712Z,99287.55
2022-08-20T23:06:59.308Z,99291.76
2022-08-20T23:09:27.382Z,99289.66
2022-08-20T23:11:54.882Z,99283.88
2022-08-20T23:14:22.221Z,99286.36
2022-08-20T23:17:09.023Z,99283.33
2022-08-20T23:19:39.374Z,99280.16
2022-08-20T23:22:07.159Z,99277.25
2022-08-20T23:24:35.552Z,99273.10
2022-08-20T23:27:05.470Z,99273.46
2022-08-20T23:29:33.478Z,99269.45
2022-08-20T23:32:00.864Z,99274.80
2022-08-20T23:34:28.250Z,99275.45
2022-08-20T23:36:57.481Z,99274.91
2022-08-20T23:39:26.145Z,99276.55
2022-08-20T23:41:53.894Z,99270.39
2022-08-20T23:44:25.937Z,99264.79
2022-08-20T23:47:01.816Z,99257.59
2022-08-20T23:49:31.345Z,99253.95
2022-08-20T23:52:00.101Z,99254.88
2022-08-20T23:54:32.132Z,99262.39
2022-08-20T23:56:59.961Z,99259.25
2022-08-20T23:59:27.289Z,99255.85
